Aeroporto :
LOGIN :

Iscrizione | Disclaimer

   EN    FR    IT 

 










Sommario :    VFR   VFR Marginale   IFR   IFR Intensivo   IFR Molto Intensivo
Visibilità : 
Base nubi : 
>= 8 km
>= 3000ft
5 / 8 km
1000 / 3000 ft
1500m / 5 km
500 / 1000 ft
800 / 1500m
200 / 500 ft
< 800m
< 200 ft
Simboli :   Temporali  Nebbia  Neve Forte  Precipitazioni Forti  Vento > 20 kt
SIGMETs :   Varie  Temporali  Ghiacco  Turbolenza  Onda orograficha  Ceneri Vulcaniche







- Altitudine del aeroporto : 239 ft
- Codice IATA : VRN


LIPX - Villafranca Int. Verona

ULTIMO METAR :
  • 252150Z 09002KT CAVOK 26/19 Q1023

METARs OBSOLETI :
  • 252120Z 33003KT CAVOK 26/20 Q1022
  • 252050Z 33003KT 300V010 CAVOK 27/19 Q1022
  • 252020Z 09003KT CAVOK 27/20 Q1022
  • 251950Z VRB01KT CAVOK 29/19 Q1021
  • 251920Z 11001KT CAVOK 28/19 Q1021
  • 251850Z VRB02KT CAVOK 31/17 Q1021

TAF TAF LIPX
Valido dal 25 a 21 ore il 26 a 06 ore UTC


252000Z 2521/2606 VRB05KT CAVOK
Nessun NOTAM noto per questo aeroporto.



MetMap, La meteo Aeronautica in un colpo d'occhio ! - Copyright ORBIFLY Dicembre 2007 - Disclaimer

ORBIFLY MET'MAP TEAM :

Programmazione e sviluppo : Alexandra Zaïnal
Concezione e sviluppo : Baudouin d'Aumeries
Co-Programmazione e sviluppo : Marc-Olivier Méhu
Supporto tecnico e logistico : Manuel Goepfert
Aiuto per la traduzione : Arnaldo La Scala

Contatto : metmap@orbifly.com




FONTI E CREDITI :

   NOAA